RYS7264 LCPH-EPKT
Flight info
| Callsign | RYS7264 |
|---|---|
| Flight time | N/A |
| Altitude | 38000 |
| Route | GENOS DCT PEDER M855 TOMBI UM855 AYT UQ26 TUDBU DCT AMTOV DCT APROB DCT NARKA DCT ABULI DCT REDSI DCT MEBAN |
| Aircraft | B738/M-SDFGIJ1LRWY/SB1 |
Departure
| Time | N/A |
|---|---|
| Airport | Paphos International Airport (LCPH) |
Arrival
| Time | 2026-05-07 06:39 |
|---|---|
| Airport | Katowice Wojciech Korfanty International Airport (EPKT) |
| Time | Latitude | Longitude | Altitude | Speed | Heading |
|---|---|---|---|---|---|
| 2026-05-07 06:01 | 47.57499 | 22.37588 | 37964 ft | 425 kts | 324° |
| 2026-05-07 06:02 | 47.62500 | 22.32874 | 37963 ft | 425 kts | 323° |
| 2026-05-07 06:02 | 47.67441 | 22.28206 | 37961 ft | 425 kts | 323° |
| 2026-05-07 06:03 | 47.72437 | 22.23474 | 37969 ft | 426 kts | 323° |
| 2026-05-07 06:03 | 47.77408 | 22.18752 | 37976 ft | 427 kts | 323° |
| 2026-05-07 06:04 | 47.82420 | 22.13982 | 37973 ft | 427 kts | 323° |
| 2026-05-07 06:04 | 47.87400 | 22.09238 | 37972 ft | 428 kts | 323° |
| 2026-05-07 06:05 | 47.92390 | 22.04472 | 37971 ft | 428 kts | 323° |
| 2026-05-07 06:05 | 47.97427 | 21.99649 | 37971 ft | 429 kts | 323° |
| 2026-05-07 06:06 | 48.02410 | 21.94874 | 37968 ft | 428 kts | 323° |
| 2026-05-07 06:06 | 48.07405 | 21.90061 | 37971 ft | 429 kts | 323° |
| 2026-05-07 06:07 | 48.12382 | 21.85254 | 37964 ft | 428 kts | 323° |
| 2026-05-07 06:07 | 48.17403 | 21.80393 | 37958 ft | 428 kts | 323° |
| 2026-05-07 06:08 | 48.22383 | 21.75571 | 37953 ft | 429 kts | 323° |
| 2026-05-07 06:08 | 48.27390 | 21.70710 | 37951 ft | 429 kts | 323° |
| 2026-05-07 06:09 | 48.32355 | 21.65883 | 37940 ft | 429 kts | 323° |
| 2026-05-07 06:09 | 48.37378 | 21.60981 | 37931 ft | 430 kts | 323° |
| 2026-05-07 06:10 | 48.42365 | 21.56095 | 37925 ft | 430 kts | 323° |
| 2026-05-07 06:10 | 48.47398 | 21.51161 | 37923 ft | 431 kts | 323° |
| 2026-05-07 06:11 | 48.52397 | 21.46242 | 37928 ft | 431 kts | 323° |
| 2026-05-07 06:11 | 48.57385 | 21.41328 | 37919 ft | 431 kts | 323° |
| 2026-05-07 06:12 | 48.62399 | 21.36376 | 37917 ft | 432 kts | 323° |
| 2026-05-07 06:12 | 48.67415 | 21.31414 | 37915 ft | 432 kts | 322° |
| 2026-05-07 06:13 | 48.72418 | 21.26448 | 37917 ft | 431 kts | 322° |
| 2026-05-07 06:13 | 48.77369 | 21.21530 | 37909 ft | 415 kts | 322° |
| 2026-05-07 06:13 | 48.79755 | 21.19161 | 37914 ft | 403 kts | 322° |
| 2026-05-07 06:14 | 48.82057 | 21.16871 | 37917 ft | 393 kts | 321° |
| 2026-05-07 06:14 | 48.86618 | 21.12302 | 37917 ft | 401 kts | 321° |
| 2026-05-07 06:15 | 48.91292 | 21.07603 | 37818 ft | 402 kts | 321° |
| 2026-05-07 06:15 | 48.93597 | 21.05289 | 37639 ft | 402 kts | 321° |
| 2026-05-07 06:15 | 48.95914 | 21.02961 | 37223 ft | 401 kts | 321° |
| 2026-05-07 06:15 | 48.98250 | 21.00612 | 36753 ft | 400 kts | 321° |
| 2026-05-07 06:16 | 49.00567 | 20.98284 | 36411 ft | 398 kts | 321° |
| 2026-05-07 06:16 | 49.02876 | 20.95963 | 35994 ft | 399 kts | 321° |
| 2026-05-07 06:16 | 49.05180 | 20.93644 | 35521 ft | 401 kts | 321° |
| 2026-05-07 06:16 | 49.07516 | 20.91282 | 35028 ft | 404 kts | 321° |
| 2026-05-07 06:17 | 49.09860 | 20.88907 | 34502 ft | 406 kts | 321° |
| 2026-05-07 06:17 | 49.12184 | 20.86551 | 33972 ft | 406 kts | 321° |
| 2026-05-07 06:17 | 49.14556 | 20.84148 | 33473 ft | 406 kts | 321° |
| 2026-05-07 06:17 | 49.16869 | 20.81804 | 32985 ft | 405 kts | 321° |
| 2026-05-07 06:18 | 49.19224 | 20.79418 | 32487 ft | 405 kts | 321° |
| 2026-05-07 06:18 | 49.21572 | 20.77035 | 31987 ft | 404 kts | 321° |
| 2026-05-07 06:18 | 49.23877 | 20.74694 | 31502 ft | 404 kts | 321° |
| 2026-05-07 06:18 | 49.26222 | 20.72305 | 31018 ft | 403 kts | 321° |
| 2026-05-07 06:19 | 49.28530 | 20.69946 | 30524 ft | 403 kts | 321° |
| 2026-05-07 06:19 | 49.30849 | 20.67575 | 30037 ft | 402 kts | 321° |
| 2026-05-07 06:19 | 49.33165 | 20.65205 | 29545 ft | 401 kts | 321° |
| 2026-05-07 06:19 | 49.35504 | 20.62813 | 29047 ft | 401 kts | 321° |
| 2026-05-07 06:20 | 49.37794 | 20.60468 | 28558 ft | 400 kts | 321° |
| 2026-05-07 06:20 | 49.40111 | 20.58098 | 28060 ft | 400 kts | 321° |
| 2026-05-07 06:20 | 49.42418 | 20.55725 | 27571 ft | 399 kts | 321° |
| 2026-05-07 06:20 | 49.44708 | 20.53359 | 27082 ft | 398 kts | 321° |
| 2026-05-07 06:21 | 49.46979 | 20.51018 | 26607 ft | 397 kts | 321° |
| 2026-05-07 06:21 | 49.49269 | 20.48661 | 26127 ft | 395 kts | 322° |
| 2026-05-07 06:21 | 49.51550 | 20.46310 | 25641 ft | 394 kts | 321° |
| 2026-05-07 06:21 | 49.53817 | 20.43967 | 25163 ft | 393 kts | 321° |
| 2026-05-07 06:22 | 49.56067 | 20.41638 | 24678 ft | 392 kts | 321° |
| 2026-05-07 06:22 | 49.60596 | 20.36941 | 23717 ft | 389 kts | 321° |
| 2026-05-07 06:22 | 49.62825 | 20.34624 | 23255 ft | 388 kts | 321° |
| 2026-05-07 06:23 | 49.65063 | 20.32298 | 22780 ft | 387 kts | 321° |
| 2026-05-07 06:23 | 49.67275 | 20.29996 | 22283 ft | 386 kts | 321° |
| 2026-05-07 06:23 | 49.69494 | 20.27679 | 21549 ft | 392 kts | 321° |
| 2026-05-07 06:23 | 49.71753 | 20.25315 | 20790 ft | 398 kts | 321° |
| 2026-05-07 06:24 | 49.74055 | 20.22904 | 20024 ft | 403 kts | 321° |
| 2026-05-07 06:24 | 49.76379 | 20.20469 | 19261 ft | 407 kts | 321° |
| 2026-05-07 06:24 | 49.78724 | 20.18013 | 18509 ft | 411 kts | 321° |
| 2026-05-07 06:24 | 49.81122 | 20.15530 | 17758 ft | 414 kts | 322° |
| 2026-05-07 06:25 | 49.83499 | 20.13095 | 17009 ft | 416 kts | 323° |
| 2026-05-07 06:25 | 49.85924 | 20.10620 | 16265 ft | 418 kts | 323° |
| 2026-05-07 06:25 | 49.88350 | 20.08142 | 15533 ft | 420 kts | 323° |
| 2026-05-07 06:25 | 49.90790 | 20.05642 | 14774 ft | 420 kts | 323° |
| 2026-05-07 06:26 | 49.93189 | 20.03179 | 14034 ft | 421 kts | 323° |
| 2026-05-07 06:26 | 49.95641 | 20.00655 | 13301 ft | 420 kts | 323° |
| 2026-05-07 06:26 | 49.98048 | 19.98178 | 13085 ft | 406 kts | 323° |
| 2026-05-07 06:26 | 50.00351 | 19.95808 | 12940 ft | 391 kts | 323° |
| 2026-05-07 06:27 | 50.02563 | 19.93526 | 12697 ft | 380 kts | 323° |
| 2026-05-07 06:27 | 50.04758 | 19.91254 | 12099 ft | 381 kts | 323° |
| 2026-05-07 06:27 | 50.06976 | 19.88948 | 11357 ft | 384 kts | 323° |
| 2026-05-07 06:27 | 50.09173 | 19.86660 | 10624 ft | 386 kts | 323° |
| 2026-05-07 06:28 | 50.11398 | 19.84342 | 10070 ft | 382 kts | 323° |
| 2026-05-07 06:28 | 50.13569 | 19.82085 | 9879 ft | 368 kts | 323° |
| 2026-05-07 06:28 | 50.15640 | 19.79936 | 9848 ft | 346 kts | 323° |
| 2026-05-07 06:28 | 50.17524 | 19.77831 | 9854 ft | 323 kts | 319° |
| 2026-05-07 06:29 | 50.19227 | 19.75713 | 9853 ft | 302 kts | 317° |
| 2026-05-07 06:29 | 50.20777 | 19.73665 | 9859 ft | 284 kts | 316° |
| 2026-05-07 06:29 | 50.22242 | 19.71696 | 9731 ft | 272 kts | 315° |
| 2026-05-07 06:29 | 50.23662 | 19.69791 | 9392 ft | 270 kts | 316° |
| 2026-05-07 06:30 | 50.25081 | 19.67902 | 9053 ft | 267 kts | 316° |
| 2026-05-07 06:30 | 50.26504 | 19.66021 | 8725 ft | 264 kts | 316° |
| 2026-05-07 06:30 | 50.27896 | 19.64188 | 8415 ft | 261 kts | 316° |
| 2026-05-07 06:30 | 50.29264 | 19.62383 | 8103 ft | 258 kts | 316° |
| 2026-05-07 06:31 | 50.30627 | 19.60587 | 7799 ft | 255 kts | 316° |
| 2026-05-07 06:31 | 50.31972 | 19.58817 | 7557 ft | 249 kts | 316° |
| 2026-05-07 06:31 | 50.33284 | 19.57087 | 7321 ft | 245 kts | 316° |
| 2026-05-07 06:31 | 50.34568 | 19.55390 | 7073 ft | 241 kts | 316° |
| 2026-05-07 06:32 | 50.35858 | 19.53682 | 6718 ft | 241 kts | 316° |
| 2026-05-07 06:32 | 50.37131 | 19.51996 | 6374 ft | 241 kts | 316° |
| 2026-05-07 06:32 | 50.38406 | 19.50309 | 6038 ft | 241 kts | 316° |
| 2026-05-07 06:32 | 50.39687 | 19.48609 | 5694 ft | 241 kts | 316° |
| 2026-05-07 06:33 | 50.40972 | 19.46901 | 5364 ft | 239 kts | 316° |
| 2026-05-07 06:33 | 50.42230 | 19.45234 | 5055 ft | 235 kts | 316° |
| 2026-05-07 06:33 | 50.43463 | 19.43606 | 4785 ft | 230 kts | 316° |
| 2026-05-07 06:33 | 50.44665 | 19.42014 | 4595 ft | 220 kts | 316° |
| 2026-05-07 06:34 | 50.45790 | 19.40525 | 4468 ft | 207 kts | 316° |
| 2026-05-07 06:34 | 50.46828 | 19.39073 | 4350 ft | 194 kts | 309° |
| 2026-05-07 06:34 | 50.47352 | 19.37267 | 4262 ft | 176 kts | 274° |
| 2026-05-07 06:34 | 50.47394 | 19.35422 | 4183 ft | 166 kts | 272° |
| 2026-05-07 06:35 | 50.47464 | 19.33000 | 3891 ft | 166 kts | 271° |
| 2026-05-07 06:35 | 50.47481 | 19.31795 | 3737 ft | 166 kts | 270° |
| 2026-05-07 06:35 | 50.47499 | 19.29997 | 3509 ft | 166 kts | 270° |
| 2026-05-07 06:35 | 50.47513 | 19.28191 | 3281 ft | 166 kts | 270° |
| 2026-05-07 06:36 | 50.47524 | 19.26376 | 3054 ft | 166 kts | 269° |
| 2026-05-07 06:36 | 50.47532 | 19.24567 | 2827 ft | 166 kts | 269° |
| 2026-05-07 06:36 | 50.47540 | 19.22770 | 2602 ft | 165 kts | 268° |
| 2026-05-07 06:36 | 50.47547 | 19.20970 | 2376 ft | 166 kts | 268° |
| 2026-05-07 06:37 | 50.47554 | 19.19192 | 2175 ft | 157 kts | 268° |
| 2026-05-07 06:37 | 50.47560 | 19.17519 | 1959 ft | 147 kts | 267° |
| 2026-05-07 06:37 | 50.47564 | 19.15940 | 1752 ft | 142 kts | 268° |
| 2026-05-07 06:37 | 50.47589 | 19.14393 | 1587 ft | 142 kts | 270° |
| 2026-05-07 06:38 | 50.47597 | 19.12839 | 1386 ft | 144 kts | 265° |
| 2026-05-07 06:38 | 50.47596 | 19.11258 | 1183 ft | 144 kts | 267° |
| 2026-05-07 06:38 | 50.47598 | 19.09698 | 999 ft | 145 kts | 268° |
| 2026-05-07 06:38 | 50.47601 | 19.08374 | 983 ft | 92 kts | 269° |
| 2026-05-07 06:39 | 50.47601 | 19.07654 | 979 ft | 44 kts | 270° |
| 2026-05-07 06:39 | 50.47595 | 19.07216 | 977 ft | 35 kts | 257° |
| 2026-05-07 06:39 | 50.47524 | 19.06953 | 975 ft | 18 kts | 238° |
| 2026-05-07 06:39 | 50.47456 | 19.06783 | 973 ft | 18 kts | 237° |
| 2026-05-07 06:40 | 50.47400 | 19.06647 | 974 ft | 13 kts | 223° |
| 2026-05-07 06:40 | 50.47317 | 19.06623 | 976 ft | 11 kts | 180° |
| 2026-05-07 06:40 | 50.47248 | 19.06638 | 977 ft | 9 kts | 142° |
| 2026-05-07 06:40 | 50.47234 | 19.06771 | 977 ft | 17 kts | 88° |
| 2026-05-07 06:41 | 50.47232 | 19.06961 | 980 ft | 16 kts | 91° |
| 2026-05-07 06:41 | 50.47231 | 19.07093 | 981 ft | 6 kts | 90° |
| 2026-05-07 06:41 | 50.47212 | 19.07140 | 982 ft | 4 kts | 167° |
| 2026-05-07 06:41 | 50.47184 | 19.07141 | 982 ft | 3 kts | 180° |
| 2026-05-07 06:42 | 50.47169 | 19.07141 | 983 ft | 0 kts | 180° |
| 2026-05-07 06:42 | 50.47168 | 19.07141 | 983 ft | 0 kts | 180° |